Time;durP1;ratioP1;P1;durP2;ratioP2;P2;SDS_P1;SDS_P2;PMS_P1;PMS_P2;Temp;Humidity;BMP_temperature;BMP_pressure;BME280_temperature;BME280_humidity;BME280_pressure;Samples;Min_cycle;Max_cycle;Signal;HPM_P1;HPM_P2
2023/08/28 00:01:58;;;;;;;3.42;1.50;;;20.00;10.20;;;;;;5028159;29;20048;-62
2023/08/28 00:04:29;;;;;;;2.20;1.67;;;20.00;12.00;;;;;;5047850;29;20043;-63
2023/08/28 00:07:03;;;;;;;2.15;1.45;;;19.90;1.00;;;;;;5045830;29;20052;-65
2023/08/28 00:09:35;;;;;;;1.50;1.40;;;20.00;1.00;;;;;;5057418;28;20103;-64
2023/08/28 00:12:09;;;;;;;1.60;1.50;;;20.00;1.00;;;;;;5050439;28;20036;-66
2023/08/28 00:14:41;;;;;;;1.65;1.55;;;20.00;1.00;;;;;;5052292;29;20040;-64
2023/08/28 00:17:18;;;;;;;1.60;1.50;;;19.90;1.00;;;;;;5076934;28;20040;-62
2023/08/28 00:19:50;;;;;;;1.48;1.38;;;19.90;1.00;;;;;;5033002;28;20253;-63
2023/08/28 00:22:24;;;;;;;2.50;1.75;;;19.90;1.00;;;;;;5071505;28;20046;-67
2023/08/28 00:24:58;;;;;;;1.52;1.40;;;19.90;1.00;;;;;;5061434;29;20467;-65
2023/08/28 00:27:30;;;;;;;3.00;1.40;;;19.90;1.00;;;;;;5058174;29;20048;-63
2023/08/28 00:30:07;;;;;;;2.35;1.42;;;19.90;1.00;;;;;;5044132;28;20052;-64
2023/08/28 00:32:40;;;;;;;1.77;1.65;;;19.90;1.00;;;;;;5079870;29;20055;-64
2023/08/28 00:35:14;;;;;;;2.72;1.85;;;19.90;1.00;;;;;;5075551;28;20052;-61
2023/08/28 00:37:46;;;;;;;1.40;1.30;;;19.80;1.00;;;;;;5115501;28;20047;-61
2023/08/28 00:40:23;;;;;;;4.28;1.58;;;19.80;1.00;;;;;;5049261;29;20378;-63
2023/08/28 00:43:01;;;;;;;3.08;1.50;;;19.80;1.00;;;;;;5084852;28;20090;-64
2023/08/28 00:45:33;;;;;;;1.92;1.67;;;19.70;1.00;;;;;;5154041;28;20042;-61
2023/08/28 00:48:09;;;;;;;1.58;1.48;;;19.80;1.00;;;;;;5119785;28;20052;-66
2023/08/28 00:50:47;;;;;;;1.35;1.25;;;19.80;1.00;;;;;;5088049;28;20034;-63
2023/08/28 00:53:18;;;;;;;1.55;1.30;;;19.80;1.00;;;;;;5072459;28;20030;-64
2023/08/28 00:55:53;;;;;;;1.55;1.45;;;19.80;1.00;;;;;;5058884;28;20044;-66
2023/08/28 00:58:24;;;;;;;1.60;1.50;;;19.80;1.00;;;;;;5040702;28;20206;-64
2023/08/28 01:00:56;;;;;;;2.00;1.30;;;19.80;1.00;;;;;;5155535;23;20116;-65
2023/08/28 01:03:33;;;;;;;1.60;1.50;;;19.70;1.00;;;;;;5166876;28;20053;-65
2023/08/28 01:06:54;;;;;;;1.50;1.40;;;19.70;1.00;;;;;;5103273;28;20047;-64
2023/08/28 01:09:48;;;;;;;1.88;1.25;;;19.70;1.00;;;;;;5105443;28;20043;-65
2023/08/28 01:12:34;;;;;;;1.60;1.50;;;19.70;1.00;;;;;;5119568;28;20047;-64
2023/08/28 01:15:26;;;;;;;1.15;1.05;;;19.70;1.00;;;;;;5102132;28;20057;-64
2023/08/28 01:18:04;;;;;;;1.85;1.50;;;19.70;1.00;;;;;;5165119;28;20035;-65
2023/08/28 01:20:39;;;;;;;1.70;1.60;;;19.70;1.00;;;;;;5099253;29;20043;-64
2023/08/28 01:23:28;;;;;;;1.60;1.50;;;19.70;1.00;;;;;;5149393;28;20052;-64
2023/08/28 01:26:01;;;;;;;1.83;1.38;;;19.60;1.00;;;;;;5100006;29;20039;-63
2023/08/28 01:28:35;;;;;;;1.92;1.58;;;19.60;1.00;;;;;;5097929;28;20493;-64
2023/08/28 01:31:09;;;;;;;1.58;1.48;;;19.60;1.00;;;;;;5143121;28;20051;-64
2023/08/28 01:33:46;;;;;;;1.80;1.30;;;19.60;1.00;;;;;;5118468;28;20047;-63
2023/08/28 01:36:33;;;;;;;1.60;1.20;;;19.60;1.00;;;;;;5164414;28;20547;-63
2023/08/28 01:39:33;;;;;;;1.27;1.17;;;19.50;1.00;;;;;;5180148;28;20045;-64
2023/08/28 01:42:09;;;;;;;1.55;1.40;;;19.50;1.00;;;;;;5179948;28;20049;-65
2023/08/28 01:44:54;;;;;;;1.80;1.20;;;19.40;1.00;;;;;;5152650;28;20256;-64
2023/08/28 01:47:25;;;;;;;1.40;1.30;;;19.40;1.00;;;;;;5110008;28;20033;-64
2023/08/28 01:49:58;;;;;;;1.83;1.40;;;19.40;1.00;;;;;;5121098;28;20047;-64
2023/08/28 01:52:29;;;;;;;2.38;1.70;;;19.40;1.00;;;;;;5157377;28;20336;-62
2023/08/28 01:55:01;;;;;;;1.40;1.15;;;19.30;1.00;;;;;;5088268;28;20284;-64
2023/08/28 01:57:35;;;;;;;1.55;1.40;;;19.30;1.00;;;;;;5093295;28;20054;-64
2023/08/28 02:00:11;;;;;;;1.50;1.40;;;19.40;1.00;;;;;;5164222;28;20327;-64
2023/08/28 02:02:43;;;;;;;1.42;1.20;;;19.30;1.00;;;;;;5115497;28;20047;-63
2023/08/28 02:05:17;;;;;;;2.10;1.50;;;19.30;1.00;;;;;;5113502;28;20030;-63
2023/08/28 02:07:51;;;;;;;1.85;1.40;;;19.30;1.00;;;;;;5097749;28;20053;-63
2023/08/28 02:10:24;;;;;;;1.38;1.27;;;19.30;1.00;;;;;;5118107;28;20101;-63
2023/08/28 02:12:58;;;;;;;1.50;1.30;;;19.30;1.00;;;;;;5129830;28;20061;-64
2023/08/28 02:15:30;;;;;;;1.50;1.40;;;19.30;1.00;;;;;;5091870;28;20759;-63
2023/08/28 02:18:06;;;;;;;1.10;1.00;;;19.30;1.00;;;;;;5141119;28;20513;-65
2023/08/28 02:20:41;;;;;;;2.20;1.15;;;19.20;1.00;;;;;;5196790;28;20525;-66
2023/08/28 02:23:15;;;;;;;1.40;1.10;;;19.30;1.00;;;;;;5104598;28;20054;-65
2023/08/28 02:25:50;;;;;;;2.63;1.27;;;19.30;1.00;;;;;;5102974;28;20495;-64
2023/08/28 02:28:26;;;;;;;1.40;1.30;;;19.20;1.00;;;;;;5081901;29;20035;-65
2023/08/28 02:31:03;;;;;;;1.38;1.25;;;19.20;1.00;;;;;;5080764;28;20047;-65
2023/08/28 02:33:37;;;;;;;2.38;1.63;;;19.20;1.00;;;;;;5140813;28;20044;-65
2023/08/28 02:36:10;;;;;;;1.37;1.27;;;19.20;1.00;;;;;;5205318;28;20050;-63
2023/08/28 02:38:44;;;;;;;1.42;1.33;;;19.20;1.00;;;;;;5128250;28;20261;-66
2023/08/28 02:41:16;;;;;;;1.40;1.10;;;19.20;1.00;;;;;;5136728;28;20472;-64
2023/08/28 02:43:54;;;;;;;1.75;1.40;;;19.20;1.00;;;;;;5132810;28;20037;-64
2023/08/28 02:46:26;;;;;;;1.52;1.42;;;19.20;1.00;;;;;;5099288;28;20327;-65
2023/08/28 02:49:01;;;;;;;1.60;1.50;;;19.20;1.00;;;;;;5102136;28;20055;-63
2023/08/28 02:51:37;;;;;;;2.33;1.50;;;19.10;1.00;;;;;;5115038;28;20047;-65
2023/08/28 02:54:11;;;;;;;1.30;1.20;;;19.10;1.00;;;;;;5198732;28;20037;-65
2023/08/28 02:56:42;;;;;;;2.08;1.98;;;19.10;1.00;;;;;;5131829;28;20041;-63
2023/08/28 02:59:17;;;;;;;1.30;1.20;;;19.10;1.00;;;;;;5117579;28;20663;-62
2023/08/28 03:01:50;;;;;;;1.40;1.30;;;19.00;1.00;;;;;;5078235;28;20052;-64
2023/08/28 03:04:24;;;;;;;1.52;1.42;;;19.10;1.00;;;;;;5133205;28;20034;-64
2023/08/28 03:06:58;;;;;;;1.65;1.55;;;19.10;1.00;;;;;;5135286;28;20046;-61
2023/08/28 03:09:32;;;;;;;1.58;1.48;;;19.00;1.00;;;;;;5104648;28;20039;-62
2023/08/28 03:12:06;;;;;;;1.38;1.27;;;19.10;1.00;;;;;;5083574;29;20051;-62
2023/08/28 03:14:43;;;;;;;1.60;1.50;;;19.10;1.00;;;;;;5102646;29;20057;-64
2023/08/28 03:17:20;;;;;;;1.90;1.40;;;19.10;1.00;;;;;;5100227;29;20213;-64
2023/08/28 03:19:54;;;;;;;1.40;1.30;;;19.00;1.00;;;;;;5088876;28;20038;-64
2023/08/28 03:22:28;;;;;;;1.48;1.10;;;18.90;1.00;;;;;;5101221;28;20045;-64
2023/08/28 03:25:00;;;;;;;1.38;1.27;;;18.90;1.00;;;;;;5117016;28;20043;-64
2023/08/28 03:27:32;;;;;;;1.20;1.10;;;18.90;1.00;;;;;;5171861;28;20032;-64
2023/08/28 03:30:09;;;;;;;1.27;1.20;;;18.80;1.00;;;;;;5116954;28;20041;-64
2023/08/28 03:32:43;;;;;;;1.42;1.10;;;18.90;1.00;;;;;;5099992;28;20047;-65
2023/08/28 03:35:14;;;;;;;1.30;1.20;;;18.80;1.00;;;;;;5113482;28;20086;-65
2023/08/28 03:37:49;;;;;;;1.77;1.25;;;18.80;1.00;;;;;;5135850;28;20042;-63
2023/08/28 03:40:20;;;;;;;1.58;1.25;;;18.70;1.00;;;;;;5103701;28;20054;-62
2023/08/28 03:42:52;;;;;;;1.10;1.00;;;18.60;28.50;;;;;;5120549;28;20051;-63
2023/08/28 03:45:27;;;;;;;1.20;1.10;;;18.60;64.40;;;;;;5117700;28;20038;-62
2023/08/28 03:48:01;;;;;;;1.33;1.10;;;18.50;74.50;;;;;;5137501;28;20026;-63
2023/08/28 03:50:33;;;;;;;1.50;1.40;;;18.50;73.50;;;;;;5130684;28;20043;-63
2023/08/28 03:53:07;;;;;;;1.33;1.17;;;18.50;83.40;;;;;;5121236;28;20045;-64
2023/08/28 03:55:41;;;;;;;1.85;1.30;;;18.40;97.20;;;;;;5101493;28;20038;-62
2023/08/28 03:58:20;;;;;;;1.88;1.70;;;18.30;99.90;;;;;;5101601;28;20048;-62
2023/08/28 04:00:55;;;;;;;1.35;1.23;;;18.30;99.90;;;;;;5120261;28;20039;-64
2023/08/28 04:03:26;;;;;;;1.48;1.20;;;18.30;99.90;;;;;;5132860;28;20039;-62
2023/08/28 04:05:59;;;;;;;1.85;1.23;;;18.30;99.90;;;;;;5087708;28;20037;-63
2023/08/28 04:08:35;;;;;;;4.10;1.38;;;18.30;99.90;;;;;;5108682;28;20469;-61
2023/08/28 04:11:11;;;;;;;2.25;1.17;;;18.40;93.50;;;;;;5118415;28;20157;-63
2023/08/28 04:13:51;;;;;;;1.17;1.10;;;18.40;46.90;;;;;;5085538;29;20070;-61
2023/08/28 04:16:22;;;;;;;1.10;1.08;;;18.40;44.10;;;;;;5097416;29;20046;-63
2023/08/28 04:19:01;;;;;;;2.35;1.80;;;18.40;64.30;;;;;;5100965;28;20049;-61
2023/08/28 04:21:37;;;;;;;1.67;1.58;;;18.40;41.50;;;;;;5153720;28;20035;-62
2023/08/28 04:24:11;;;;;;;1.10;1.00;;;18.30;40.60;;;;;;5191363;28;20626;-63
2023/08/28 04:26:45;;;;;;;1.10;1.10;;;18.30;51.00;;;;;;5104390;28;20039;-65
2023/08/28 04:29:17;;;;;;;;;;;18.20;61.10;;;;;;5104748;28;20035;-63
2023/08/28 04:31:48;;;;;;;2.03;1.08;;;18.20;62.60;;;;;;5088550;28;19918;-63
2023/08/28 04:34:22;;;;;;;1.27;1.17;;;18.20;54.50;;;;;;5104252;28;20047;-62
2023/08/28 04:36:59;;;;;;;1.52;1.42;;;18.10;44.90;;;;;;5134953;28;20043;-61
2023/08/28 04:39:31;;;;;;;1.38;1.20;;;18.10;59.60;;;;;;5118334;28;20049;-63
2023/08/28 04:42:04;;;;;;;1.00;1.00;;;18.20;53.20;;;;;;5101546;28;20039;-62
2023/08/28 04:44:36;;;;;;;0.88;0.88;;;18.20;52.80;;;;;;5136321;28;20121;-63
2023/08/28 04:47:13;;;;;;;1.02;1.00;;;18.10;59.60;;;;;;5126275;28;20039;-63
2023/08/28 04:49:44;;;;;;;1.00;1.00;;;18.10;54.30;;;;;;5112476;28;20608;-63
2023/08/28 04:52:19;;;;;;;1.20;1.10;;;18.10;71.30;;;;;;5139421;28;20042;-61
2023/08/28 04:55:01;;;;;;;1.10;1.00;;;18.10;76.90;;;;;;5122137;28;20050;-62
2023/08/28 04:57:38;;;;;;;1.30;1.20;;;18.10;78.20;;;;;;5200355;28;20035;-63
2023/08/28 05:00:16;;;;;;;1.00;1.00;;;18.10;57.90;;;;;;5182783;28;20032;-62
2023/08/28 05:02:47;;;;;;;1.00;0.90;;;18.10;48.60;;;;;;5121445;28;20045;-61
2023/08/28 05:05:24;;;;;;;0.93;0.85;;;18.20;11.90;;;;;;5122870;28;20038;-60
2023/08/28 05:07:59;;;;;;;1.00;0.95;;;18.20;5.10;;;;;;5124004;28;20043;-61
2023/08/28 05:10:34;;;;;;;;;;;18.20;1.00;;;;;;5101070;28;20054;-62
2023/08/28 05:13:08;;;;;;;1.30;1.20;;;18.20;1.00;;;;;;5098714;28;19918;-63
2023/08/28 05:15:40;;;;;;;0.80;0.80;;;18.20;1.00;;;;;;5082568;29;20047;-64
2023/08/28 05:18:14;;;;;;;1.13;1.13;;;18.20;1.00;;;;;;5128360;28;20046;-62
2023/08/28 05:20:45;;;;;;;1.95;1.30;;;18.20;1.00;;;;;;5194706;28;20049;-61
2023/08/28 05:23:25;;;;;;;1.20;1.10;;;18.30;1.00;;;;;;5121307;28;20038;-63
2023/08/28 05:25:59;;;;;;;1.00;1.00;;;18.40;1.00;;;;;;5089621;28;20578;-63
2023/08/28 05:28:37;;;;;;;1.30;1.20;;;18.40;1.00;;;;;;5087193;28;20050;-62
2023/08/28 05:31:10;;;;;;;1.02;0.95;;;18.40;1.00;;;;;;5098593;28;20039;-62
2023/08/28 05:33:44;;;;;;;1.13;1.08;;;18.40;1.00;;;;;;5118009;28;20050;-64
2023/08/28 05:36:15;;;;;;;;;;;18.40;1.00;;;;;;5117867;28;20094;-63
2023/08/28 05:38:47;;;;;;;1.38;1.00;;;18.50;1.00;;;;;;5113748;28;19929;-62
2023/08/28 05:41:21;;;;;;;2.35;1.30;;;18.50;1.00;;;;;;5119850;28;20047;-64
2023/08/28 05:43:56;;;;;;;2.88;0.90;;;18.50;1.00;;;;;;5102447;28;20051;-60
2023/08/28 05:46:32;;;;;;;1.00;1.00;;;18.60;1.00;;;;;;5112513;28;20030;-60
2023/08/28 05:49:03;;;;;;;1.23;1.13;;;18.60;1.00;;;;;;5136770;28;20039;-65
2023/08/28 05:51:37;;;;;;;1.65;1.05;;;18.70;1.00;;;;;;5093658;28;20095;-64
2023/08/28 05:54:09;;;;;;;;;;;18.70;1.00;;;;;;5183460;28;20047;-63
2023/08/28 05:56:40;;;;;;;0.80;0.80;;;18.60;1.00;;;;;;5107142;28;19918;-65
2023/08/28 05:59:12;;;;;;;0.80;0.80;;;18.60;1.00;;;;;;5132941;28;20035;-64
2023/08/28 06:01:43;;;;;;;1.10;1.00;;;18.50;1.00;;;;;;5125507;28;20046;-65
2023/08/28 06:04:16;;;;;;;2.22;1.00;;;18.60;1.00;;;;;;5117896;28;20047;-63
2023/08/28 06:06:50;;;;;;;3.20;0.93;;;18.60;1.00;;;;;;5115355;28;20568;-65
2023/08/28 06:09:30;;;;;;;1.40;1.30;;;18.70;1.00;;;;;;5175494;28;20050;-65
2023/08/28 06:12:01;;;;;;;1.00;0.98;;;18.70;1.00;;;;;;5128581;28;20058;-65
2023/08/28 06:14:33;;;;;;;1.00;1.00;;;18.70;1.00;;;;;;5100609;28;20062;-69
2023/08/28 06:17:05;;;;;;;1.05;1.05;;;18.70;1.00;;;;;;5126196;28;20054;-65
2023/08/28 06:19:45;;;;;;;1.10;0.90;;;18.70;1.00;;;;;;5110895;28;20059;-64
2023/08/28 06:22:16;;;;;;;1.40;1.30;;;18.80;1.00;;;;;;5101119;28;20053;-63
2023/08/28 06:24:52;;;;;;;2.13;1.38;;;18.80;1.00;;;;;;5124592;28;20343;-65
2023/08/28 06:27:23;;;;;;;1.00;1.00;;;18.70;1.00;;;;;;5110852;28;20411;-61
2023/08/28 06:29:58;;;;;;;1.25;1.15;;;18.90;1.00;;;;;;5099908;29;20057;-65
2023/08/28 06:32:32;;;;;;;1.02;0.90;;;19.00;1.00;;;;;;5166417;28;20511;-64
2023/08/28 06:35:04;;;;;;;1.33;1.05;;;19.00;1.00;;;;;;5125044;28;20043;-64
2023/08/28 06:37:35;;;;;;;1.00;1.00;;;19.10;1.00;;;;;;5095452;28;20070;-64
2023/08/28 06:40:12;;;;;;;1.00;0.95;;;19.00;1.00;;;;;;5130827;28;20567;-64
2023/08/28 06:42:44;;;;;;;1.00;0.90;;;19.00;1.00;;;;;;5113832;28;20294;-63
2023/08/28 06:45:16;;;;;;;1.38;1.27;;;19.00;1.00;;;;;;5097965;28;20053;-62
2023/08/28 06:47:47;;;;;;;1.35;1.08;;;19.10;1.00;;;;;;5200388;28;20032;-64
2023/08/28 06:50:21;;;;;;;1.75;1.20;;;19.10;1.00;;;;;;5115256;28;20050;-65
2023/08/28 06:52:55;;;;;;;;;;;19.10;1.00;;;;;;5097090;28;20053;-65
2023/08/28 06:55:27;;;;;;;1.08;1.08;;;19.00;1.00;;;;;;5170681;28;19924;-65
2023/08/28 06:57:59;;;;;;;2.10;1.90;;;19.00;1.00;;;;;;5109506;28;20062;-62
2023/08/28 07:00:30;;;;;;;1.35;1.08;;;19.20;1.00;;;;;;5109780;28;20031;-63
2023/08/28 07:03:04;;;;;;;2.55;1.23;;;19.10;1.00;;;;;;5105934;28;20058;-64
2023/08/28 07:05:51;;;;;;;1.40;1.30;;;19.10;1.00;;;;;;5101271;28;20047;-63
2023/08/28 07:08:22;;;;;;;1.40;1.30;;;19.10;1.00;;;;;;5131401;28;20048;-63
2023/08/28 07:10:56;;;;;;;1.30;1.20;;;19.20;1.00;;;;;;5133971;28;20034;-63
2023/08/28 07:13:33;;;;;;;4.47;1.25;;;19.30;1.00;;;;;;5096946;28;20040;-63
2023/08/28 07:16:05;;;;;;;1.42;1.33;;;19.40;1.00;;;;;;5105194;29;20043;-63
2023/08/28 07:18:37;;;;;;;1.27;1.17;;;19.60;1.00;;;;;;5082447;28;20408;-61
2023/08/28 07:21:09;;;;;;;1.40;1.30;;;19.70;1.00;;;;;;5125830;28;20041;-63
2023/08/28 07:23:41;;;;;;;1.30;1.20;;;19.80;1.00;;;;;;5088296;28;20055;-65
2023/08/28 07:26:20;;;;;;;1.23;1.13;;;19.80;1.00;;;;;;5112583;29;20039;-64
2023/08/28 07:28:56;;;;;;;1.95;1.40;;;19.80;99.90;;;;;;5100538;28;20043;-63
2023/08/28 07:31:28;;;;;;;1.60;1.20;;;19.80;99.90;;;;;;5129603;28;20039;-66
2023/08/28 07:33:59;;;;;;;1.67;1.58;;;19.80;99.90;;;;;;5099500;28;20053;-64
2023/08/28 07:36:32;;;;;;;1.40;1.30;;;19.80;99.90;;;;;;5093222;28;20254;-63
2023/08/28 07:39:07;;;;;;;1.25;1.20;;;19.80;99.90;;;;;;5134205;28;20031;-63
2023/08/28 07:41:42;;;;;;;1.75;1.50;;;19.90;99.90;;;;;;5096031;28;20051;-62
2023/08/28 07:44:14;;;;;;;1.30;1.20;;;19.90;99.90;;;;;;5116715;28;20039;-64
2023/08/28 07:46:53;;;;;;;1.75;1.65;;;20.00;99.90;;;;;;5077819;28;20050;-65
2023/08/28 07:49:24;;;;;;;2.38;1.40;;;20.10;99.90;;;;;;5169874;28;20032;-64
2023/08/28 07:51:58;;;;;;;1.20;1.13;;;20.00;99.90;;;;;;5169652;28;20047;-63
2023/08/28 07:54:36;;;;;;;1.30;1.20;;;20.00;99.90;;;;;;5156511;28;20117;-63
2023/08/28 07:57:08;;;;;;;1.85;1.20;;;20.00;99.90;;;;;;5131996;28;20043;-62
2023/08/28 07:59:42;;;;;;;1.40;1.30;;;20.10;99.90;;;;;;5117545;28;20045;-62
2023/08/28 08:02:14;;;;;;;;;;;20.40;97.40;;;;;;5099613;28;20047;-61
2023/08/28 08:04:47;;;;;;;2.40;1.40;;;20.40;1.00;;;;;;5115333;29;20347;-62
2023/08/28 08:07:19;;;;;;;1.50;1.40;;;20.40;1.00;;;;;;5117672;28;20031;-63
2023/08/28 08:09:50;;;;;;;3.28;1.17;;;20.30;1.00;;;;;;5186602;28;20518;-64
2023/08/28 08:12:27;;;;;;;1.35;1.10;;;20.30;1.00;;;;;;5135443;28;20148;-65
2023/08/28 08:14:59;;;;;;;3.22;1.52;;;20.50;1.00;;;;;;5103478;28;20050;-59
2023/08/28 08:17:31;;;;;;;1.40;1.30;;;20.60;1.00;;;;;;5116171;28;20056;-62
2023/08/28 08:20:10;;;;;;;1.88;1.40;;;20.40;1.00;;;;;;5156686;28;20065;-63
2023/08/28 08:22:46;;;;;;;1.95;1.48;;;20.40;1.00;;;;;;5138329;28;20043;-64
2023/08/28 08:25:22;;;;;;;2.47;1.60;;;20.60;1.00;;;;;;5118253;28;20068;-65
2023/08/28 08:27:56;;;;;;;1.60;1.50;;;20.90;1.00;;;;;;5119594;28;20039;-63
2023/08/28 08:30:27;;;;;;;1.65;1.40;;;21.10;1.00;;;;;;5106903;28;20033;-62
2023/08/28 08:33:01;;;;;;;2.90;1.40;;;21.40;99.90;;;;;;5104491;29;20040;-62
2023/08/28 08:35:34;;;;;;;2.15;1.50;;;22.00;1.00;;;;;;5121566;28;20042;-62
2023/08/28 08:38:08;;;;;;;1.73;1.63;;;22.20;1.00;;;;;;5103469;28;20668;-63
2023/08/28 08:40:45;;;;;;;1.87;1.57;;;22.20;99.90;;;;;;5123095;28;20508;-62
2023/08/28 08:43:20;;;;;;;1.88;1.33;;;21.70;99.90;;;;;;5102759;28;20129;-62
2023/08/28 08:46:07;;;;;;;2.00;1.35;;;21.80;20.30;;;;;;5116712;28;20039;-64
2023/08/28 08:48:44;;;;;;;1.70;1.60;;;21.90;99.90;;;;;;5145873;28;20042;-63
2023/08/28 08:51:20;;;;;;;1.63;1.50;;;22.10;1.00;;;;;;5128389;28;20413;-61
2023/08/28 08:54:20;;;;;;;1.50;1.40;;;22.30;99.90;;;;;;5157629;28;20047;-68
2023/08/28 08:57:02;;;;;;;1.75;1.48;;;22.10;1.00;;;;;;5135850;28;20043;-63
2023/08/28 08:59:37;;;;;;;1.98;1.38;;;22.10;1.00;;;;;;5119146;28;20057;-63
2023/08/28 09:02:15;;;;;;;5.57;1.67;;;22.30;1.00;;;;;;5103014;28;20051;-67
2023/08/28 09:04:49;;;;;;;1.60;1.50;;;21.70;59.10;;;;;;5152069;28;20443;-61
2023/08/28 09:07:24;;;;;;;2.15;1.30;;;21.60;99.90;;;;;;5129449;28;20356;-63
2023/08/28 09:10:00;;;;;;;1.98;1.77;;;21.70;1.00;;;;;;5098070;29;20053;-62
2023/08/28 09:12:31;;;;;;;1.88;1.50;;;21.70;1.00;;;;;;5115716;28;20347;-64
2023/08/28 09:15:04;;;;;;;1.80;1.40;;;21.80;1.00;;;;;;5113831;28;20228;-63
2023/08/28 09:17:44;;;;;;;1.45;1.35;;;21.90;1.00;;;;;;5119245;28;20039;-63
2023/08/28 09:20:21;;;;;;;4.32;1.73;;;21.80;1.00;;;;;;5109707;28;20050;-63
2023/08/28 09:22:55;;;;;;;2.00;1.90;;;21.70;1.00;;;;;;5172976;28;20362;-63
2023/08/28 09:25:27;;;;;;;2.05;1.73;;;21.70;1.00;;;;;;5080581;28;20053;-62
2023/08/28 09:27:58;;;;;;;2.17;1.52;;;21.30;1.00;;;;;;5098976;28;20066;-62
2023/08/28 09:30:32;;;;;;;3.60;2.10;;;21.40;1.00;;;;;;5118381;28;20041;-63
2023/08/28 09:33:06;;;;;;;1.90;1.80;;;21.30;1.00;;;;;;5108266;28;20050;-63
2023/08/28 09:35:40;;;;;;;2.40;1.90;;;21.00;1.00;;;;;;5166295;28;20045;-63
2023/08/28 09:38:12;;;;;;;2.10;1.90;;;21.10;1.00;;;;;;5117052;28;20073;-63
2023/08/28 09:40:48;;;;;;;2.10;1.90;;;21.20;1.00;;;;;;5132347;28;20050;-62
2023/08/28 09:43:21;;;;;;;1.88;1.75;;;21.20;1.00;;;;;;5108109;28;20089;-61
2023/08/28 09:46:00;;;;;;;3.47;1.73;;;21.30;1.00;;;;;;5112815;28;20051;-63
2023/08/28 09:48:32;;;;;;;2.90;1.85;;;21.20;1.00;;;;;;5122891;28;20292;-65
2023/08/28 09:51:07;;;;;;;2.17;1.70;;;21.40;1.00;;;;;;5116740;28;20053;-64
2023/08/28 09:53:40;;;;;;;;;;;21.40;1.00;;;;;;5121470;28;20234;-62
2023/08/28 09:56:18;;;;;;;3.05;2.42;;;21.20;1.00;;;;;;5101513;28;19914;-62
2023/08/28 09:58:50;;;;;;;2.72;1.90;;;21.40;1.00;;;;;;5122598;28;20054;-64
2023/08/28 10:01:21;;;;;;;2.17;1.60;;;21.40;1.00;;;;;;5187814;28;20044;-64
2023/08/28 10:03:53;;;;;;;3.22;2.13;;;21.50;1.00;;;;;;5152344;28;20051;-64
2023/08/28 10:06:26;;;;;;;2.28;1.70;;;21.50;1.00;;;;;;5094469;28;20039;-63
2023/08/28 10:09:00;;;;;;;2.75;1.65;;;21.60;1.00;;;;;;5101392;28;20059;-61
2023/08/28 10:11:40;;;;;;;3.30;2.60;;;22.00;1.00;;;;;;5111827;28;20039;-61
2023/08/28 10:14:12;;;;;;;3.10;2.55;;;22.20;1.00;;;;;;5135394;28;20058;-61
2023/08/28 10:16:52;;;;;;;4.78;2.20;;;21.50;1.00;;;;;;5127614;28;20194;-62
2023/08/28 10:19:37;;;;;;;2.80;2.30;;;21.60;1.00;;;;;;5117102;28;20055;-61
2023/08/28 10:22:10;;;;;;;2.42;1.98;;;21.90;1.00;;;;;;5177804;28;20730;-61
2023/08/28 10:24:44;;;;;;;2.92;2.22;;;22.10;1.00;;;;;;5118592;28;20085;-61
2023/08/28 10:27:18;;;;;;;2.10;2.00;;;22.10;1.00;;;;;;5111204;28;20038;-61
2023/08/28 10:29:53;;;;;;;2.00;1.63;;;22.70;1.00;;;;;;5127628;28;20426;-61
2023/08/28 10:32:29;;;;;;;2.00;1.80;;;23.50;99.90;;;;;;5097248;28;20050;-61
2023/08/28 10:35:07;;;;;;;3.45;1.90;;;24.20;1.00;;;;;;5121665;28;20042;-62
2023/08/28 10:37:40;;;;;;;4.10;2.20;;;24.20;1.00;;;;;;5110018;28;20077;-63
2023/08/28 10:40:17;;;;;;;2.35;2.15;;;23.80;1.00;;;;;;5088874;28;20046;-63
2023/08/28 10:42:51;;;;;;;3.08;2.30;;;24.50;1.00;;;;;;5178290;28;20347;-64
2023/08/28 10:45:27;;;;;;;4.35;2.47;;;24.10;1.00;;;;;;5126342;28;20207;-63
2023/08/28 10:47:59;;;;;;;8.60;2.45;;;23.40;1.00;;;;;;5092206;28;20034;-60
2023/08/28 10:50:38;;;;;;;3.53;2.65;;;23.00;1.00;;;;;;5134350;28;20047;-64
2023/08/28 10:53:19;;;;;;;4.47;2.47;;;23.00;1.00;;;;;;5123335;28;20528;-63
2023/08/28 10:56:03;;;;;;;3.03;2.17;;;23.20;1.00;;;;;;5109172;28;20051;-63
2023/08/28 10:58:41;;;;;;;4.07;2.20;;;23.20;1.00;;;;;;5105694;28;20044;-62
2023/08/28 11:01:17;;;;;;;4.32;2.47;;;23.20;1.00;;;;;;5111689;28;20240;-64
2023/08/28 11:03:57;;;;;;;2.50;2.00;;;22.90;1.00;;;;;;5120233;28;20460;-61
2023/08/28 11:06:41;;;;;;;2.15;1.92;;;23.30;1.00;;;;;;5112166;28;20054;-63
2023/08/28 11:09:28;;;;;;;5.85;1.95;;;24.10;1.00;;;;;;5131755;28;20321;-63
2023/08/28 11:12:02;;;;;;;4.53;2.20;;;24.70;1.00;;;;;;5131479;28;20038;-63
2023/08/28 11:14:41;;;;;;;2.67;1.92;;;24.20;1.00;;;;;;5114353;28;20167;-62
2023/08/28 11:17:15;;;;;;;2.40;2.10;;;24.20;1.00;;;;;;5188405;28;20566;-62
2023/08/28 11:19:59;;;;;;;;;;;25.10;1.00;;;;;;5121023;28;20371;-62
2023/08/28 11:22:41;;;;;;;8.00;2.20;;;24.50;1.00;;;;;;5110180;28;19918;-62
2023/08/28 11:25:35;;;;;;;5.90;2.00;;;24.80;1.00;;;;;;5094724;28;20046;-62
2023/08/28 11:28:30;;;;;;;1.73;1.63;;;25.50;1.00;;;;;;5075908;28;20038;-61
2023/08/28 11:31:04;;;;;;;3.47;1.88;;;26.60;1.00;;;;;;5197374;28;20032;-60
2023/08/28 11:33:40;;;;;;;2.72;2.22;;;26.60;1.00;;;;;;5127352;28;20050;-62
2023/08/28 11:36:18;;;;;;;2.33;1.90;;;25.90;1.00;;;;;;5113742;28;20061;-61
2023/08/28 11:38:56;;;;;;;2.53;2.33;;;25.90;1.00;;;;;;5092924;28;20050;-62
2023/08/28 11:41:31;;;;;;;3.58;1.90;;;26.20;1.00;;;;;;5113196;28;20566;-63
2023/08/28 11:44:13;;;;;;;3.65;2.30;;;27.30;1.00;;;;;;5165874;28;20050;-61
2023/08/28 11:46:47;;;;;;;3.47;2.00;;;29.00;1.00;;;;;;5155330;28;20046;-61
2023/08/28 11:49:21;;;;;;;2.17;1.73;;;29.70;99.90;;;;;;5108123;28;20046;-61
2023/08/28 11:51:55;;;;;;;;;;;30.20;99.90;;;;;;5163095;28;20054;-61
2023/08/28 11:54:29;;;;;;;3.22;2.03;;;28.90;57.40;;;;;;5116299;28;19917;-61
2023/08/28 11:57:07;;;;;;;2.58;2.03;;;28.80;1.00;;;;;;5167098;28;20047;-61
2023/08/28 11:59:41;;;;;;;1.98;1.67;;;28.60;1.00;;;;;;5113181;28;20034;-61
2023/08/28 12:02:15;;;;;;;1.95;1.83;;;28.90;1.00;;;;;;5109251;28;20050;-62
2023/08/28 12:04:51;;;;;;;2.22;1.80;;;28.50;1.00;;;;;;5108306;28;20038;-61
2023/08/28 12:07:25;;;;;;;5.13;2.60;;;30.00;99.90;;;;;;5118241;28;20042;-62
2023/08/28 12:09:58;;;;;;;1.80;1.70;;;29.40;1.00;;;;;;5119798;28;20488;-62
2023/08/28 12:12:31;;;;;;;3.05;1.85;;;28.60;42.30;;;;;;5114532;28;20045;-60
2023/08/28 12:15:04;;;;;;;2.13;1.73;;;28.70;99.90;;;;;;5114853;28;20057;-64
2023/08/28 12:17:38;;;;;;;2.20;1.90;;;29.30;1.00;;;;;;5105404;28;20051;-62
2023/08/28 12:20:22;;;;;;;3.05;1.85;;;28.80;99.90;;;;;;5113701;28;20465;-64
2023/08/28 12:22:58;;;;;;;2.53;2.27;;;28.20;99.90;;;;;;5106145;28;20043;-63
2023/08/28 12:25:37;;;;;;;2.33;1.67;;;27.80;1.00;;;;;;5152832;28;20309;-63
2023/08/28 12:28:13;;;;;;;2.55;1.85;;;28.30;21.20;;;;;;5112045;28;20057;-63
2023/08/28 12:30:51;;;;;;;3.10;2.10;;;26.80;1.00;;;;;;5096267;28;20047;-62
2023/08/28 12:33:23;;;;;;;2.60;2.05;;;26.20;99.90;;;;;;5108520;28;20396;-62
2023/08/28 12:35:57;;;;;;;2.75;2.42;;;26.90;1.00;;;;;;5085878;28;20271;-62
2023/08/28 12:38:31;;;;;;;3.28;2.08;;;26.60;99.90;;;;;;5144794;28;20052;-60
2023/08/28 12:41:03;;;;;;;4.85;1.95;;;26.60;99.90;;;;;;5089047;28;20047;-59
2023/08/28 12:43:38;;;;;;;3.95;1.92;;;26.80;99.90;;;;;;5106949;28;20499;-62
2023/08/28 12:46:09;;;;;;;2.03;1.70;;;29.20;1.00;;;;;;5099865;28;20101;-61
2023/08/28 12:48:44;;;;;;;2.28;1.70;;;31.10;1.00;;;;;;5109590;28;20200;-63
2023/08/28 12:51:15;;;;;;;;;;;32.30;1.00;;;;;;5101523;28;20094;-62
2023/08/28 12:53:46;;;;;;;2.95;1.60;;;32.40;1.00;;;;;;5114604;28;19932;-62
2023/08/28 12:56:20;;;;;;;1.73;1.45;;;31.40;1.00;;;;;;5135007;28;20051;-63
2023/08/28 12:58:51;;;;;;;2.10;1.60;;;32.10;1.00;;;;;;5123667;28;20146;-64
2023/08/28 13:01:26;;;;;;;2.33;1.70;;;32.10;99.90;;;;;;5109703;28;20045;-63
2023/08/28 13:03:59;;;;;;;1.67;1.58;;;32.00;99.90;;;;;;5167795;28;20049;-61
2023/08/28 13:06:38;;;;;;;1.45;1.35;;;33.40;1.00;;;;;;5093817;28;20062;-64
2023/08/28 13:09:10;;;;;;;3.08;1.70;;;34.20;1.00;;;;;;5111266;28;20572;-64
2023/08/28 13:11:47;;;;;;;1.90;1.67;;;34.30;1.00;;;;;;5180682;28;20057;-64
2023/08/28 13:14:27;;;;;;;2.50;1.83;;;31.90;1.00;;;;;;5128884;28;20038;-61
2023/08/28 13:16:59;;;;;;;2.78;1.83;;;31.20;99.90;;;;;;5091501;28;20039;-61
2023/08/28 13:19:33;;;;;;;1.52;1.40;;;31.20;99.90;;;;;;5112635;28;20042;-62
2023/08/28 13:22:07;;;;;;;2.88;1.95;;;30.70;99.90;;;;;;5085130;28;20062;-65
2023/08/28 13:24:39;;;;;;;4.63;1.83;;;29.50;99.90;;;;;;5093364;28;20053;-63
2023/08/28 13:27:12;;;;;;;2.08;1.80;;;29.50;1.00;;;;;;5128478;28;20049;-62
2023/08/28 13:29:48;;;;;;;3.45;2.00;;;30.30;91.60;;;;;;5184794;28;20049;-60
2023/08/28 13:32:25;;;;;;;2.10;1.83;;;30.70;68.50;;;;;;5133601;28;20047;-64
2023/08/28 13:35:01;;;;;;;2.28;1.98;;;30.40;89.40;;;;;;5116589;28;20038;-64
2023/08/28 13:37:35;;;;;;;2.42;1.85;;;29.30;1.00;;;;;;5187344;28;20138;-62
2023/08/28 13:40:08;;;;;;;2.45;1.58;;;27.90;1.00;;;;;;5102882;28;20043;-63